East Cotter, Arkansas
Current Conditions -  °F | °C
As of 11:53 PM on Friday 28 Nov 2014 (Local Time) from KBPK Reporting Station
Clear Clear  
Wind Chill: 46°   Ceiling: Unl
Heat Index: 46°   Visibility: 10mi
Dew Point: 38°   Wind: 3mph
Humidity: 73%   Direction: 170°S
Pressure: 29.92"   Gusts: NA
Location:  36.3299°N, 92.4805°W
Report Text: KBPK 290553Z AUTO 17003KT 10SM CLR 08/03 A2992 RMK AO2 SLP131 T00780033 10094 20078 401391011 58013
Loading
Personal Weather Stations






























Interactive Weather Map New forecast layout! Learn more

10-Day Weather Forecast

Advertisements
Track Severe Weather on mobile